createdAt,value
2018-06-11T00:00:09.093Z,100093.68
2018-06-11T00:02:40.848Z,100094.39
2018-06-11T00:05:12.219Z,100087.79
2018-06-11T00:07:42.888Z,100079.66
2018-06-11T00:10:13.643Z,100072.67
2018-06-11T00:12:44.337Z,100066.78
2018-06-11T00:15:15.193Z,100065.66
2018-06-11T00:17:45.922Z,100067.05
2018-06-11T00:20:16.985Z,100070.61
2018-06-11T00:22:47.933Z,100064.35
2018-06-11T00:25:18.961Z,100062.44
2018-06-11T00:27:49.816Z,100058.09
2018-06-11T00:30:20.928Z,100053.30
2018-06-11T00:32:52.000Z,100041.52
2018-06-11T00:35:23.037Z,100041.88
2018-06-11T00:37:54.088Z,100048.56
2018-06-11T00:40:25.008Z,100044.48
2018-06-11T00:42:55.516Z,100041.20
2018-06-11T00:45:26.154Z,100043.05
2018-06-11T00:47:57.669Z,100041.74
2018-06-11T00:50:28.787Z,100039.50
2018-06-11T00:52:59.770Z,100037.80
2018-06-11T00:55:48.225Z,100037.27
2018-06-11T00:58:18.965Z,100040.52
2018-06-11T01:00:49.724Z,100042.89
2018-06-11T01:03:20.483Z,100040.13
2018-06-11T01:05:51.219Z,100031.36
2018-06-11T01:08:21.922Z,100029.77
2018-06-11T01:10:52.626Z,100030.95
2018-06-11T01:13:23.340Z,100030.19
2018-06-11T01:15:54.154Z,100030.33
2018-06-11T01:18:25.080Z,100029.63
2018-06-11T01:20:55.822Z,100028.77
2018-06-11T01:23:26.493Z,100025.83
2018-06-11T01:25:57.261Z,100025.59
2018-06-11T01:28:27.993Z,100014.13
2018-06-11T01:30:58.775Z,100011.66
2018-06-11T01:33:29.497Z,100003.47
2018-06-11T01:36:00.213Z,100001.58
2018-06-11T01:38:30.975Z,100004.98
2018-06-11T01:41:01.693Z,99997.03
2018-06-11T01:43:33.650Z,100001.01
2018-06-11T01:46:05.407Z,99999.18
2018-06-11T01:48:36.104Z,99994.59
2018-06-11T01:51:07.054Z,99996.97
2018-06-11T01:53:37.841Z,99994.50
2018-06-11T01:56:08.619Z,99990.13
2018-06-11T01:58:39.376Z,99998.20
2018-06-11T02:01:10.077Z,99995.52
2018-06-11T02:03:40.774Z,99993.64
2018-06-11T02:06:11.525Z,99991.02
2018-06-11T02:08:42.234Z,99986.78
2018-06-11T02:11:12.928Z,99987.83
2018-06-11T02:13:43.475Z,99977.52
2018-06-11T02:16:14.512Z,99977.41
2018-06-11T02:18:45.437Z,99974.78
2018-06-11T02:21:16.032Z,99967.69
2018-06-11T02:23:46.981Z,99974.48
2018-06-11T02:26:18.227Z,99983.14
2018-06-11T02:28:49.210Z,99980.73
2018-06-11T02:31:20.165Z,99991.59
2018-06-11T02:33:50.958Z,99994.22
2018-06-11T02:36:22.252Z,99991.72
2018-06-11T02:38:53.230Z,99987.84
2018-06-11T02:41:24.460Z,99992.55
2018-06-11T02:43:55.834Z,99987.17
2018-06-11T02:46:27.154Z,99983.30
2018-06-11T02:48:57.944Z,99979.93
2018-06-11T02:51:28.725Z,99977.81
2018-06-11T02:53:59.483Z,99981.66
2018-06-11T02:56:31.195Z,99987.84
2018-06-11T02:59:01.937Z,99991.03
2018-06-11T03:01:33.731Z,99994.34
2018-06-11T03:04:04.458Z,99991.68
2018-06-11T03:06:35.259Z,100004.78
2018-06-11T03:09:07.613Z,100011.71
2018-06-11T03:11:38.325Z,100009.09
2018-06-11T03:14:08.646Z,100005.02
2018-06-11T03:16:39.374Z,100006.52
2018-06-11T03:19:10.064Z,100006.52
2018-06-11T03:21:40.787Z,100007.34
2018-06-11T03:24:11.481Z,100004.45
2018-06-11T03:26:42.262Z,100005.77
2018-06-11T03:29:13.055Z,99995.61
2018-06-11T03:31:44.224Z,99998.47
2018-06-11T03:34:15.009Z,100003.39
2018-06-11T03:36:45.798Z,100000.85
2018-06-11T03:39:17.285Z,100001.54
2018-06-11T03:41:48.086Z,99995.11
2018-06-11T03:44:18.768Z,99995.64
2018-06-11T03:46:49.500Z,100004.62
2018-06-11T03:49:20.237Z,100006.30
2018-06-11T03:51:50.985Z,100010.75
2018-06-11T03:54:21.729Z,100013.70
2018-06-11T03:56:52.502Z,100001.61
2018-06-11T03:59:23.261Z,99997.50
2018-06-11T04:01:53.965Z,100002.73
2018-06-11T04:04:24.662Z,100000.98
2018-06-11T04:06:55.352Z,99997.62
2018-06-11T04:09:26.337Z,99991.33
2018-06-11T04:11:57.033Z,99995.36
2018-06-11T04:14:27.755Z,99995.06
2018-06-11T04:16:58.484Z,99989.79
2018-06-11T04:19:29.250Z,99981.12
2018-06-11T04:22:00.096Z,99983.64
2018-06-11T04:24:30.811Z,99979.59
2018-06-11T04:27:01.549Z,99974.70
2018-06-11T04:29:32.301Z,99975.89
2018-06-11T04:32:03.070Z,99977.00
2018-06-11T04:34:34.019Z,99981.08
2018-06-11T04:37:04.823Z,99977.85
2018-06-11T04:39:35.877Z,99978.70
2018-06-11T04:42:06.717Z,99969.98
2018-06-11T04:44:37.413Z,99959.59
2018-06-11T04:47:09.076Z,99964.05
2018-06-11T04:49:39.807Z,99959.91
2018-06-11T04:52:10.615Z,99963.05
2018-06-11T04:54:41.662Z,99962.85
2018-06-11T04:57:13.398Z,99965.17
2018-06-11T04:59:44.123Z,99965.95
2018-06-11T05:02:14.865Z,99956.95
2018-06-11T05:04:45.912Z,99959.31
2018-06-11T05:07:17.653Z,99964.13
2018-06-11T05:09:48.377Z,99960.19
2018-06-11T05:12:19.118Z,99954.66
2018-06-11T05:14:49.888Z,99952.14
2018-06-11T05:17:20.826Z,99952.22
2018-06-11T05:19:51.681Z,99950.59
2018-06-11T05:22:22.044Z,99955.25
2018-06-11T05:24:52.798Z,99957.48
2018-06-11T05:27:23.528Z,99959.11
2018-06-11T05:29:54.314Z,99960.12
2018-06-11T05:32:25.164Z,99957.09
2018-06-11T05:34:56.038Z,99956.37
2018-06-11T05:37:26.781Z,99950.80
2018-06-11T05:39:57.663Z,99959.52
2018-06-11T05:42:28.389Z,99966.42
2018-06-11T05:44:59.463Z,99968.95
2018-06-11T05:47:30.413Z,99962.77
2018-06-11T05:52:26.458Z,99963.68
2018-06-11T05:54:57.312Z,99971.78
2018-06-11T05:57:28.029Z,99971.29
2018-06-11T05:59:58.914Z,99979.59
2018-06-11T06:02:29.648Z,99984.02
2018-06-11T06:05:00.409Z,99981.41
2018-06-11T06:07:31.202Z,99981.45
2018-06-11T06:10:02.751Z,99980.89
2018-06-11T06:12:34.257Z,99981.59
2018-06-11T06:15:05.187Z,99982.21
2018-06-11T06:17:35.968Z,99982.23
2018-06-11T06:20:07.725Z,99985.78
2018-06-11T06:22:38.694Z,99991.64
2018-06-11T06:25:09.524Z,99984.34
2018-06-11T06:27:40.249Z,99996.91
2018-06-11T06:30:10.953Z,99998.90
2018-06-11T06:32:41.758Z,100003.70
2018-06-11T06:35:12.482Z,100007.82
2018-06-11T06:37:42.843Z,100023.25
2018-06-11T06:40:13.474Z,100011.91
2018-06-11T06:42:44.216Z,99999.73
2018-06-11T06:45:14.967Z,100005.41
2018-06-11T06:47:46.760Z,100004.38
2018-06-11T06:50:17.521Z,100001.16
2018-06-11T06:52:48.262Z,100002.90
2018-06-11T06:55:18.989Z,100005.56
2018-06-11T06:57:49.360Z,100010.59
2018-06-11T07:00:20.031Z,100009.11
2018-06-11T07:02:50.771Z,99999.67
2018-06-11T07:05:21.464Z,99999.19
2018-06-11T07:07:52.234Z,99989.01
2018-06-11T07:10:22.985Z,99980.10
2018-06-11T07:12:54.345Z,99975.15
2018-06-11T07:15:25.060Z,99979.17
2018-06-11T07:17:55.806Z,99983.72
2018-06-11T07:20:26.221Z,99978.94
2018-06-11T07:22:57.667Z,99983.73
2018-06-11T07:25:29.545Z,99985.16
2018-06-11T07:28:01.790Z,99991.93
2018-06-11T07:30:33.679Z,99993.42
2018-06-11T07:33:04.634Z,99992.19
2018-06-11T07:35:35.720Z,100000.61
2018-06-11T07:38:06.995Z,100000.53
2018-06-11T07:40:38.014Z,100000.92
2018-06-11T07:43:09.136Z,99993.22
2018-06-11T07:45:40.253Z,99980.95
2018-06-11T07:48:11.352Z,99986.30
2018-06-11T07:50:42.424Z,99977.52
2018-06-11T07:53:13.658Z,99969.89
2018-06-11T07:55:44.824Z,99960.50
2018-06-11T07:58:16.123Z,99961.81
2018-06-11T08:00:47.163Z,99972.84
2018-06-11T08:03:18.242Z,99976.38
2018-06-11T08:05:49.366Z,99976.54
2018-06-11T08:08:20.598Z,99962.41
2018-06-11T08:10:51.640Z,99976.41
2018-06-11T08:13:23.292Z,99966.43
2018-06-11T08:15:54.259Z,99961.92
2018-06-11T08:18:25.283Z,99963.17
2018-06-11T08:20:56.325Z,99959.67
2018-06-11T08:23:27.218Z,99953.67
2018-06-11T08:25:58.327Z,99955.79
2018-06-11T08:28:29.329Z,99955.64
2018-06-11T08:31:00.392Z,99953.70
2018-06-11T08:33:31.432Z,99956.98
2018-06-11T08:36:02.444Z,99958.42
2018-06-11T08:38:34.226Z,99956.13
2018-06-11T08:41:05.402Z,99950.95
2018-06-11T08:43:36.373Z,99952.79
2018-06-11T08:46:07.476Z,99949.73
2018-06-11T08:48:38.528Z,99949.58
2018-06-11T08:51:09.495Z,99940.13
2018-06-11T08:53:40.581Z,99938.16
2018-06-11T08:56:11.511Z,99939.63
2018-06-11T08:58:42.569Z,99936.23
2018-06-11T09:01:14.394Z,99929.35
2018-06-11T09:03:45.415Z,99923.48
2018-06-11T09:06:16.497Z,99921.40
2018-06-11T09:08:47.497Z,99914.10
2018-06-11T09:11:18.552Z,99928.32
2018-06-11T09:13:50.893Z,99940.09
2018-06-11T09:16:21.818Z,99931.31
2018-06-11T09:18:52.764Z,99931.62
2018-06-11T09:21:23.781Z,99932.62
2018-06-11T09:23:54.847Z,99933.30
2018-06-11T09:26:25.813Z,99932.75
2018-06-11T09:28:57.210Z,99929.76
2018-06-11T09:31:28.458Z,99925.80
2018-06-11T09:33:59.509Z,99929.38
2018-06-11T09:36:30.569Z,99929.08
2018-06-11T09:39:01.712Z,99921.22
2018-06-11T09:41:32.764Z,99925.59
2018-06-11T09:44:03.940Z,99919.89
2018-06-11T09:46:35.031Z,99923.02
2018-06-11T09:49:06.231Z,99917.85
2018-06-11T09:51:37.927Z,99924.98
2018-06-11T09:54:09.153Z,99928.06
2018-06-11T09:56:40.294Z,99921.99
2018-06-11T09:59:12.487Z,99918.98
2018-06-11T10:01:43.540Z,99922.28
2018-06-11T10:04:14.673Z,99918.89
2018-06-11T10:06:45.843Z,99926.38
2018-06-11T10:09:16.950Z,99932.84
2018-06-11T10:11:47.819Z,99930.16
2018-06-11T10:14:19.005Z,99933.42
2018-06-11T10:16:50.078Z,99921.73
2018-06-11T10:19:21.388Z,99914.88
2018-06-11T10:21:52.288Z,99915.64
2018-06-11T10:24:23.221Z,99912.45
2018-06-11T10:26:54.270Z,99903.72
2018-06-11T10:29:25.207Z,99900.67
2018-06-11T10:31:56.201Z,99889.68
2018-06-11T10:34:29.398Z,99888.11
2018-06-11T10:37:00.445Z,99881.84
2018-06-11T10:39:31.463Z,99884.86
2018-06-11T10:42:02.460Z,99875.52
2018-06-11T10:44:33.622Z,99869.78
2018-06-11T10:47:04.507Z,99871.95
2018-06-11T10:49:35.662Z,99868.57
2018-06-11T10:52:06.589Z,99869.73
2018-06-11T10:54:38.789Z,99870.57
2018-06-11T10:57:09.797Z,99860.25
2018-06-11T10:59:41.256Z,99851.60
2018-06-11T11:02:12.184Z,99847.31
2018-06-11T11:04:42.821Z,99831.89
2018-06-11T11:07:13.689Z,99837.25
2018-06-11T11:09:44.697Z,99834.86
2018-06-11T11:12:15.806Z,99834.37
2018-06-11T11:14:47.976Z,99832.88
2018-06-11T11:17:19.085Z,99830.39
2018-06-11T11:19:53.803Z,99822.16
2018-06-11T11:22:24.964Z,99821.78
2018-06-11T11:24:56.431Z,99813.73
2018-06-11T11:27:27.421Z,99812.19
2018-06-11T11:29:58.153Z,99821.50
2018-06-11T11:32:28.965Z,99818.41
2018-06-11T11:35:00.059Z,99820.11
2018-06-11T11:37:31.017Z,99808.23
2018-06-11T11:40:02.066Z,99802.61
2018-06-11T11:42:33.127Z,99807.06
2018-06-11T11:45:04.476Z,99805.56
2018-06-11T11:47:35.506Z,99817.91
2018-06-11T11:50:06.620Z,99817.91
2018-06-11T11:52:37.768Z,99823.28
2018-06-11T11:55:09.950Z,99821.28
2018-06-11T11:57:41.000Z,99823.31
2018-06-11T12:00:12.303Z,99824.53
2018-06-11T12:02:44.208Z,99821.70
2018-06-11T12:05:15.379Z,99813.59
2018-06-11T12:07:46.522Z,99808.89
2018-06-11T12:10:17.676Z,99812.86
2018-06-11T12:12:48.967Z,99817.80
2018-06-11T12:15:20.124Z,99815.27
2018-06-11T12:17:51.198Z,99809.58
2018-06-11T12:20:22.363Z,99801.59
2018-06-11T12:22:53.312Z,99797.39
2018-06-11T12:25:25.090Z,99785.95
2018-06-11T12:27:56.111Z,99780.63
2018-06-11T12:30:27.378Z,99771.09
2018-06-11T12:32:58.467Z,99768.53
2018-06-11T12:35:29.647Z,99752.95
2018-06-11T12:38:01.973Z,99755.73
2018-06-11T12:40:33.240Z,99748.38
2018-06-11T12:43:04.344Z,99741.48
2018-06-11T12:45:35.366Z,99737.98
2018-06-11T12:48:06.637Z,99727.89
2018-06-11T12:50:37.758Z,99729.48
2018-06-11T12:53:08.780Z,99734.05
2018-06-11T12:55:40.405Z,99725.06
2018-06-11T12:58:12.115Z,99724.47
2018-06-11T13:00:42.822Z,99708.81
2018-06-11T13:03:14.405Z,99693.12
2018-06-11T13:05:45.571Z,99687.00
2018-06-11T13:08:16.678Z,99687.70
2018-06-11T13:10:47.615Z,99683.68
2018-06-11T13:13:18.703Z,99688.13
2018-06-11T13:15:49.866Z,99698.87
2018-06-11T13:18:21.053Z,99695.05
2018-06-11T13:20:52.319Z,99688.47
2018-06-11T13:23:23.558Z,99679.58
2018-06-11T13:25:54.509Z,99674.63
2018-06-11T13:28:25.663Z,99678.23
2018-06-11T13:30:57.843Z,99679.20
2018-06-11T13:33:29.309Z,99671.29
2018-06-11T13:36:00.435Z,99661.36
2018-06-11T13:38:31.547Z,99654.40
2018-06-11T13:41:02.610Z,99651.11
2018-06-11T13:43:33.627Z,99663.48
2018-06-11T13:46:04.209Z,99672.95
2018-06-11T13:48:35.599Z,99671.19
2018-06-11T13:51:06.783Z,99668.45
2018-06-11T13:53:38.099Z,99663.50
2018-06-11T13:56:08.733Z,99666.20
2018-06-11T13:58:39.640Z,99666.45
2018-06-11T14:01:10.718Z,99678.03
2018-06-11T14:03:41.762Z,99674.06
2018-06-11T14:06:12.830Z,99673.77
2018-06-11T14:08:43.742Z,99677.48
2018-06-11T14:11:14.927Z,99688.98
2018-06-11T14:13:45.858Z,99700.46
2018-06-11T14:16:16.927Z,99694.55
2018-06-11T14:18:47.948Z,99687.86
2018-06-11T14:21:18.920Z,99679.70
2018-06-11T14:23:50.034Z,99684.17
2018-06-11T14:26:21.225Z,99688.61
2018-06-11T14:28:52.509Z,99685.27
2018-06-11T14:31:23.683Z,99698.05
2018-06-11T14:33:54.785Z,99718.45
2018-06-11T14:36:25.915Z,99723.19
2018-06-11T14:38:57.116Z,99719.29
2018-06-11T14:41:28.291Z,99722.19
2018-06-11T14:43:59.425Z,99747.32
2018-06-11T14:46:31.728Z,99746.11
2018-06-11T14:49:03.058Z,99765.31
2018-06-11T14:51:36.712Z,99775.73
2018-06-11T14:54:07.609Z,99783.28
2018-06-11T14:56:38.945Z,99787.98
2018-06-11T14:59:10.984Z,99774.82
2018-06-11T15:01:43.644Z,99782.19
2018-06-11T15:04:14.815Z,99784.02
2018-06-11T15:06:47.005Z,99796.41
2018-06-11T15:09:18.173Z,99815.58
2018-06-11T15:11:49.279Z,99807.74
2018-06-11T15:14:20.219Z,99824.66
2018-06-11T15:16:51.284Z,99836.42
2018-06-11T15:19:21.967Z,99835.08
2018-06-11T15:21:53.199Z,99830.92
2018-06-11T15:24:24.195Z,99828.30
2018-06-11T15:26:55.169Z,99820.77
2018-06-11T15:29:26.199Z,99818.14
2018-06-11T15:31:57.203Z,99807.12
2018-06-11T15:34:28.255Z,99805.89
2018-06-11T15:36:59.456Z,99802.87
2018-06-11T15:39:30.552Z,99808.93
2018-06-11T15:42:01.534Z,99811.36
2018-06-11T15:44:32.589Z,99805.13
2018-06-11T15:47:03.495Z,99807.45
2018-06-11T15:49:35.492Z,99803.91
2018-06-11T15:52:06.504Z,99795.08
2018-06-11T15:54:37.333Z,99791.38
2018-06-11T15:57:08.136Z,99795.75
2018-06-11T15:59:39.108Z,99792.04
2018-06-11T16:02:10.222Z,99799.84
2018-06-11T16:04:41.449Z,99791.45
2018-06-11T16:07:12.727Z,99799.56
2018-06-11T16:09:43.958Z,99818.17
2018-06-11T16:12:14.768Z,99841.71
2018-06-11T16:14:46.169Z,99852.53
2018-06-11T16:17:17.402Z,99858.19
2018-06-11T16:19:48.338Z,99856.27
2018-06-11T16:22:19.407Z,99853.25
2018-06-11T16:24:50.645Z,99844.25
2018-06-11T16:27:22.244Z,99842.05
2018-06-11T16:29:53.244Z,99840.11
2018-06-11T16:32:24.398Z,99833.60
2018-06-11T16:34:55.552Z,99837.57
2018-06-11T16:37:26.739Z,99835.63
2018-06-11T16:39:57.972Z,99850.41
2018-06-11T16:42:29.196Z,99860.00
2018-06-11T16:45:01.112Z,99864.18
2018-06-11T16:47:32.285Z,99863.16
2018-06-11T16:50:03.550Z,99865.83
2018-06-11T16:52:34.873Z,99865.63
2018-06-11T16:55:06.104Z,99868.70
2018-06-11T16:57:37.417Z,99873.00
2018-06-11T17:00:08.477Z,99875.52
2018-06-11T17:02:39.315Z,99878.73
2018-06-11T17:05:10.536Z,99878.52
2018-06-11T17:07:41.226Z,99870.52
2018-06-11T17:10:12.160Z,99876.28
2018-06-11T17:12:43.272Z,99880.21
2018-06-11T17:15:14.456Z,99879.76
2018-06-11T17:17:45.783Z,99875.94
2018-06-11T17:20:16.903Z,99876.45
2018-06-11T17:22:48.122Z,99879.52
2018-06-11T17:25:19.239Z,99888.16
2018-06-11T17:27:50.401Z,99894.05
2018-06-11T17:30:21.588Z,99889.86
2018-06-11T17:32:52.792Z,99888.13
2018-06-11T17:35:23.947Z,99890.31
2018-06-11T17:37:55.072Z,99884.97
2018-06-11T17:40:26.077Z,99879.05
2018-06-11T17:42:57.223Z,99880.12
2018-06-11T17:45:28.504Z,99882.59
2018-06-11T17:47:59.723Z,99876.38
2018-06-11T17:50:30.248Z,99874.28
2018-06-11T17:53:01.529Z,99884.58
2018-06-11T17:55:32.523Z,99894.48
2018-06-11T17:58:03.830Z,99897.00
2018-06-11T18:00:36.356Z,99900.19
2018-06-11T18:03:08.222Z,99897.95
2018-06-11T18:05:39.324Z,99888.16
2018-06-11T18:08:10.159Z,99893.70
2018-06-11T18:10:41.182Z,99888.80
2018-06-11T18:13:12.382Z,99892.54
2018-06-11T18:15:44.038Z,99886.84
2018-06-11T18:18:15.206Z,99891.14
2018-06-11T18:20:46.333Z,99889.71
2018-06-11T18:23:17.181Z,99890.11
2018-06-11T18:25:49.110Z,99883.34
2018-06-11T18:28:19.960Z,99876.17
2018-06-11T18:30:50.946Z,99876.94
2018-06-11T18:33:21.769Z,99871.05
2018-06-11T18:35:52.721Z,99877.13
2018-06-11T18:38:23.554Z,99869.13
2018-06-11T18:40:54.381Z,99872.79
2018-06-11T18:43:25.608Z,99866.30
2018-06-11T18:45:56.455Z,99867.41
2018-06-11T18:48:28.536Z,99860.27
2018-06-11T18:51:00.383Z,99853.53
2018-06-11T18:53:33.702Z,99852.70
2018-06-11T18:56:04.596Z,99852.86
2018-06-11T18:58:36.121Z,99859.83
2018-06-11T19:01:06.984Z,99856.31
2018-06-11T19:03:39.011Z,99855.80
2018-06-11T19:06:09.629Z,99858.30
2018-06-11T19:08:40.470Z,99851.53
2018-06-11T19:11:11.311Z,99852.63
2018-06-11T19:13:42.371Z,99859.09
2018-06-11T19:16:14.453Z,99858.94
2018-06-11T19:18:45.402Z,99859.86
2018-06-11T19:21:16.409Z,99858.11
2018-06-11T19:23:47.396Z,99856.72
2018-06-11T19:26:18.337Z,99859.54
2018-06-11T19:28:50.401Z,99857.95
2018-06-11T19:31:21.431Z,99862.73
2018-06-11T19:33:52.306Z,99866.44
2018-06-11T19:36:23.238Z,99876.34
2018-06-11T19:38:54.189Z,99870.84
2018-06-11T19:41:25.671Z,99873.59
2018-06-11T19:43:56.604Z,99880.31
2018-06-11T19:46:28.247Z,99884.45
2018-06-11T19:48:59.430Z,99890.52
2018-06-11T19:51:30.325Z,99892.45
2018-06-11T19:54:01.280Z,99893.38
2018-06-11T19:56:32.256Z,99892.66
2018-06-11T19:59:04.180Z,99899.42
2018-06-11T20:01:36.408Z,99900.22
2018-06-11T20:04:07.278Z,99900.63
2018-06-11T20:06:38.331Z,99899.63
2018-06-11T20:09:10.402Z,99896.88
2018-06-11T20:11:40.909Z,99899.31
2018-06-11T20:14:11.288Z,99898.20
2018-06-11T20:16:42.138Z,99892.45
2018-06-11T20:19:13.281Z,99894.69
2018-06-11T20:21:44.157Z,99897.31
2018-06-11T20:24:15.659Z,99897.00
2018-06-11T20:26:46.519Z,99892.78
2018-06-11T20:29:17.378Z,99895.73
2018-06-11T20:31:48.839Z,99888.25
2018-06-11T20:34:19.171Z,99895.20
2018-06-11T20:36:49.882Z,99894.08
2018-06-11T20:39:20.939Z,99893.14
2018-06-11T20:41:52.086Z,99891.05
2018-06-11T20:44:22.963Z,99886.72
2018-06-11T20:46:53.920Z,99884.89
2018-06-11T20:49:24.833Z,99879.25
2018-06-11T20:51:55.669Z,99886.08
2018-06-11T20:54:27.497Z,99884.83
2018-06-11T20:56:58.995Z,99887.45
2018-06-11T20:59:30.884Z,99890.92
2018-06-11T21:02:02.684Z,99889.33
2018-06-11T21:04:33.562Z,99892.09
2018-06-11T21:07:04.503Z,99895.05
2018-06-11T21:09:35.385Z,99894.17
2018-06-11T21:12:06.205Z,99893.42
2018-06-11T21:14:37.080Z,99896.59
2018-06-11T21:17:08.022Z,99901.58
2018-06-11T21:19:38.843Z,99902.61
2018-06-11T21:22:09.656Z,99901.50
2018-06-11T21:24:40.519Z,99893.61
2018-06-11T21:27:11.420Z,99879.23
2018-06-11T21:29:42.243Z,99878.50
2018-06-11T21:32:13.118Z,99877.86
2018-06-11T21:34:43.911Z,99880.00
2018-06-11T21:37:14.798Z,99888.82
2018-06-11T21:39:45.733Z,99878.05
2018-06-11T21:42:16.248Z,99877.09
2018-06-11T21:44:46.965Z,99872.16
2018-06-11T21:47:17.820Z,99873.35
2018-06-11T21:49:48.713Z,99865.88
2018-06-11T21:52:19.523Z,99867.98
2018-06-11T21:54:50.506Z,99869.09
2018-06-11T21:57:21.308Z,99867.09
2018-06-11T21:59:52.152Z,99873.78
2018-06-11T22:02:22.947Z,99874.27
2018-06-11T22:04:53.865Z,99870.33
2018-06-11T22:07:24.590Z,99875.78
2018-06-11T22:09:55.366Z,99878.52
2018-06-11T22:12:26.157Z,99876.09
2018-06-11T22:14:57.046Z,99875.58
2018-06-11T22:17:27.853Z,99878.00
2018-06-11T22:19:59.049Z,99878.40
2018-06-11T22:22:29.833Z,99881.15
2018-06-11T22:25:00.611Z,99884.89
2018-06-11T22:27:31.407Z,99881.63
2018-06-11T22:30:01.746Z,99898.19
2018-06-11T22:32:32.380Z,99895.12
2018-06-11T22:35:03.187Z,99895.52
2018-06-11T22:37:34.034Z,99895.91
2018-06-11T22:40:05.123Z,99898.42
2018-06-11T22:42:36.157Z,99906.62
2018-06-11T22:45:06.973Z,99897.35
2018-06-11T22:47:37.684Z,99895.61
2018-06-11T22:50:08.451Z,99891.19
2018-06-11T22:52:39.210Z,99894.01
2018-06-11T22:55:09.969Z,99890.98
2018-06-11T22:57:40.700Z,99891.84
2018-06-11T23:00:12.065Z,99890.52
2018-06-11T23:02:43.211Z,99883.44
2018-06-11T23:05:14.522Z,99885.28
2018-06-11T23:07:51.210Z,99879.76
2018-06-11T23:10:25.080Z,99884.94
2018-06-11T23:12:55.837Z,99875.53
2018-06-11T23:15:27.796Z,99873.91
2018-06-11T23:18:05.358Z,99874.31
2018-06-11T23:20:36.132Z,99878.37
2018-06-11T23:23:06.953Z,99878.77
2018-06-11T23:28:15.767Z,99883.16
2018-06-11T23:30:46.515Z,99878.63
2018-06-11T23:33:17.374Z,99884.66
2018-06-11T23:35:48.422Z,99874.16
2018-06-11T23:38:19.355Z,99886.18
2018-06-11T23:40:50.109Z,99887.98
2018-06-11T23:43:20.857Z,99890.23
2018-06-11T23:45:51.567Z,99897.45
2018-06-11T23:48:22.285Z,99885.50
2018-06-11T23:50:53.237Z,99883.27
2018-06-11T23:53:23.947Z,99883.80
2018-06-11T23:55:54.697Z,99881.13
2018-06-11T23:58:26.363Z,99869.69
